Time;durP1;ratioP1;P1;durP2;ratioP2;P2;SDS_P1;SDS_P2;PMS_P1;PMS_P2;Temp;Humidity;BMP_temperature;BMP_pressure;BME280_temperature;BME280_humidity;BME280_pressure;Samples;Min_cycle;Max_cycle;Signal;HPM_P1;HPM_P2
2023/04/11 00:02:05;;;;;;;;;;;;;;;3.78;65.30;102139.88;5075343;28;20007;-68
2023/04/11 00:04:32;;;;;;;;;;;;;;;3.74;65.24;102134.75;5076888;28;19916;-65
2023/04/11 00:06:58;;;;;;;;;;;;;;;3.72;65.19;102131.38;5074761;28;19962;-66
2023/04/11 00:09:23;;;;;;;;;;;;;;;3.72;64.61;102135.78;5074544;28;19913;-64
2023/04/11 00:11:49;;;;;;;;;;;;;;;3.72;64.77;102126.09;5074662;28;19912;-66
2023/04/11 00:14:16;;;;;;;;;;;;;;;3.71;65.58;102126.19;5075157;28;19950;-66
2023/04/11 00:16:41;;;;;;;;;;;;;;;3.65;66.93;102123.88;5074694;28;19920;-66
2023/04/11 00:19:08;;;;;;;;;;;;;;;3.61;67.48;102122.38;5074052;28;20265;-66
2023/04/11 00:21:34;;;;;;;;;;;;;;;3.58;66.75;102122.53;5073954;28;19912;-67
2023/04/11 00:23:59;;;;;;;;;;;;;;;3.58;66.60;102120.75;5073716;28;20380;-66
2023/04/11 00:26:25;;;;;;;;;;;;;;;3.58;67.11;102117.28;5073994;28;19926;-66
2023/04/11 00:28:50;;;;;;;;;;;;;;;3.55;67.39;102113.03;5074200;28;19916;-67
2023/04/11 00:31:15;;;;;;;;;;;;;;;3.52;68.03;102115.81;5074436;28;20410;-66
2023/04/11 00:33:41;;;;;;;;;;;;;;;3.49;68.39;102110.72;5073776;28;20311;-67
2023/04/11 00:36:06;;;;;;;;;;;;;;;3.46;69.26;102116.13;5055827;28;20015;-66
2023/04/11 00:38:32;;;;;;;;;;;;;;;3.45;68.64;102114.44;5073583;28;19912;-67
2023/04/11 00:40:57;;;;;;;;;;;;;;;3.43;67.74;102109.25;5073955;28;19912;-68
2023/04/11 00:43:23;;;;;;;;;;;;;;;3.43;68.39;102108.41;5073530;28;19913;-65
2023/04/11 00:45:48;;;;;;;;;;;;;;;3.41;68.34;102111.13;5073607;28;19913;-66
2023/04/11 00:48:14;;;;;;;;;;;;;;;3.39;69.31;102107.72;5073545;28;20367;-66
2023/04/11 00:50:40;;;;;;;;;;;;;;;3.37;69.10;102114.00;5073463;28;19934;-67
2023/04/11 00:53:07;;;;;;;;;;;;;;;3.35;69.10;102106.19;5073438;28;19913;-65
2023/04/11 00:55:32;;;;;;;;;;;;;;;3.35;68.84;102110.63;5073931;28;19965;-64
2023/04/11 00:57:58;;;;;;;;;;;;;;;3.33;68.67;102108.06;5073817;28;19917;-66
2023/04/11 01:00:23;;;;;;;;;;;;;;;3.32;68.50;102101.09;5075025;28;20002;-67
2023/04/11 01:02:49;;;;;;;;;;;;;;;3.31;68.83;102099.41;5073741;28;19927;-65
2023/04/11 01:05:16;;;;;;;;;;;;;;;3.30;69.05;102108.25;5073660;28;19923;-65
2023/04/11 01:07:44;;;;;;;;;;;;;;;3.26;68.85;102101.44;5073703;28;19917;-66
2023/04/11 01:10:10;;;;;;;;;;;;;;;3.21;71.12;102098.22;5073305;28;20466;-69
2023/04/11 01:12:36;;;;;;;;;;;;;;;3.17;70.27;102096.66;5073200;28;19956;-67
2023/04/11 01:15:02;;;;;;;;;;;;;;;3.15;71.67;102095.03;5072846;28;19963;-67
2023/04/11 01:17:28;;;;;;;;;;;;;;;3.13;70.89;102094.28;5073539;28;19930;-68
2023/04/11 01:19:53;;;;;;;;;;;;;;;3.13;71.25;102096.91;5072922;28;20410;-66
2023/04/11 01:22:23;;;;;;;;;;;;;;;3.13;71.25;102091.63;5072648;28;19916;-67
2023/04/11 01:24:49;;;;;;;;;;;;;;;3.10;71.36;102090.03;5072859;28;19912;-67
2023/04/11 01:27:14;;;;;;;;;;;;;;;3.11;70.52;102089.09;5072867;28;19916;-66
2023/04/11 01:29:40;;;;;;;;;;;;;;;3.09;71.20;102083.06;5072960;28;20340;-65
2023/04/11 01:32:05;;;;;;;;;;;;;;;3.08;71.27;102082.22;5072943;28;20316;-66
2023/04/11 01:34:32;;;;;;;;;;;;;;;3.05;71.50;102074.47;5072784;28;19912;-68
2023/04/11 01:36:57;;;;;;;;;;;;;;;3.02;71.78;102074.66;5072626;28;19912;-65
2023/04/11 01:39:22;;;;;;;;;;;;;;;2.99;72.59;102076.59;5072511;28;20405;-67
2023/04/11 01:41:49;;;;;;;;;;;;;;;2.99;71.98;102072.19;5072552;28;19913;-66
2023/04/11 01:44:14;;;;;;;;;;;;;;;2.96;72.05;102069.72;5072420;28;20015;-66
2023/04/11 01:46:41;;;;;;;;;;;;;;;2.97;71.63;102065.31;5072638;28;20260;-65
2023/04/11 01:49:07;;;;;;;;;;;;;;;2.98;71.63;102059.09;5073047;28;20386;-64
2023/04/11 01:51:32;;;;;;;;;;;;;;;2.97;71.95;102067.94;5072225;28;19913;-67
2023/04/11 01:53:57;;;;;;;;;;;;;;;2.96;72.06;102066.25;5072286;28;20423;-65
2023/04/11 01:56:23;;;;;;;;;;;;;;;2.92;72.49;102059.44;5072415;28;20363;-67
2023/04/11 01:58:48;;;;;;;;;;;;;;;2.88;73.38;102063.13;5072356;28;19913;-66
2023/04/11 02:01:17;;;;;;;;;;;;;;;2.85;73.21;102058.03;5072237;28;19919;-66
2023/04/11 02:03:43;;;;;;;;;;;;;;;2.85;72.20;102058.03;5072973;28;20049;-67
2023/04/11 02:06:09;;;;;;;;;;;;;;;2.83;73.12;102054.66;5072904;28;20378;-66
2023/04/11 02:08:35;;;;;;;;;;;;;;;2.82;73.29;102056.44;5071912;28;19923;-65
2023/04/11 02:11:00;;;;;;;;;;;;;;;2.81;73.37;102052.09;5072266;28;19913;-66
2023/04/11 02:13:25;;;;;;;;;;;;;;;2.77;74.05;102047.94;5072274;28;19912;-65
2023/04/11 02:15:51;;;;;;;;;;;;;;;2.75;73.84;102048.00;5072306;28;19913;-65
2023/04/11 02:18:16;;;;;;;;;;;;;;;2.75;73.02;102048.00;5072392;28;20291;-65
2023/04/11 02:20:41;;;;;;;;;;;;;;;2.74;73.43;102051.56;5072107;28;19919;-66
2023/04/11 02:23:07;;;;;;;;;;;;;;;2.73;72.82;102044.63;5072259;28;19912;-67
2023/04/11 02:25:32;;;;;;;;;;;;;;;2.73;74.11;102049.88;5072072;28;19919;-65
2023/04/11 02:27:58;;;;;;;;;;;;;;;2.70;74.40;102041.31;5071970;28;19993;-65
2023/04/11 02:30:24;;;;;;;;;;;;;;;2.68;74.51;102045.78;5072240;28;20236;-66
2023/04/11 02:32:50;;;;;;;;;;;;;;;2.67;74.41;102044.09;5071895;28;19963;-65
2023/04/11 02:35:15;;;;;;;;;;;;;;;2.65;74.20;102041.56;5072311;28;19913;-68
2023/04/11 02:37:41;;;;;;;;;;;;;;;2.63;74.89;102043.41;5087476;28;19956;-65
2023/04/11 02:40:06;;;;;;;;;;;;;;;2.61;74.80;102041.78;5071867;28;19912;-67
2023/04/11 02:42:32;;;;;;;;;;;;;;;2.61;74.57;102042.66;5071945;28;20280;-66
2023/04/11 02:44:57;;;;;;;;;;;;;;;2.58;75.29;102045.41;5072008;28;19912;-66
2023/04/11 02:47:23;;;;;;;;;;;;;;;2.56;75.17;102039.38;5072216;28;19913;-66
2023/04/11 02:49:48;;;;;;;;;;;;;;;2.57;75.19;102032.34;5071901;28;20335;-66
2023/04/11 02:52:13;;;;;;;;;;;;;;;2.55;74.89;102034.19;5072181;28;19919;-67
2023/04/11 02:54:39;;;;;;;;;;;;;;;2.55;74.91;102032.41;5071926;28;20020;-66
2023/04/11 02:57:04;;;;;;;;;;;;;;;2.56;75.30;102030.63;5071955;28;19918;-68
2023/04/11 02:59:30;;;;;;;;;;;;;;;2.56;74.95;102033.28;5072006;28;20057;-66
2023/04/11 03:01:59;;;;;;;;;;;;;;;2.57;75.32;102024.44;5071701;28;19920;-68
2023/04/11 03:04:25;;;;;;;;;;;;;;;2.56;75.08;102031.50;5054090;28;20367;-67
2023/04/11 03:06:55;;;;;;;;;;;;;;;2.56;75.13;102023.59;5072508;28;19916;-67
2023/04/11 03:09:22;;;;;;;;;;;;;;;2.57;75.40;102034.97;5071907;28;20271;-67
2023/04/11 03:11:47;;;;;;;;;;;;;;;2.57;75.50;102025.28;5053956;28;20272;-67
2023/04/11 03:14:13;;;;;;;;;;;;;;;2.60;75.47;102019.91;5053718;28;19938;-66
2023/04/11 03:16:38;;;;;;;;;;;;;;;2.62;75.68;102020.69;5071643;28;19966;-67
2023/04/11 03:19:04;;;;;;;;;;;;;;;2.65;76.09;102023.13;5071605;28;19912;-66
2023/04/11 03:21:30;;;;;;;;;;;;;;;2.68;75.38;102020.34;5074945;28;20344;-68
2023/04/11 03:23:56;;;;;;;;;;;;;;;2.71;75.38;102020.19;5075108;28;19959;-68
2023/04/11 03:26:25;;;;;;;;;;;;;;;2.77;75.30;102019.84;5075038;28;20391;-67
2023/04/11 03:28:53;;;;;;;;;;;;;;;2.81;74.67;102023.16;5075096;28;20263;-66
2023/04/11 03:31:19;;;;;;;;;;;;;;;2.86;74.77;102015.00;5075201;28;19912;-68
2023/04/11 03:33:47;;;;;;;;;;;;;;;2.84;74.71;102009.00;5074879;28;19965;-67
2023/04/11 03:36:13;;;;;;;;;;;;;;;2.99;74.51;102014.28;5075153;28;19913;-67
2023/04/11 03:38:38;;;;;;;;;;;;;;;3.04;75.16;102014.88;5075052;28;20015;-65
2023/04/11 03:41:04;;;;;;;;;;;;;;;3.10;74.67;102017.16;5074955;28;19913;-67
2023/04/11 03:43:29;;;;;;;;;;;;;;;3.20;74.44;102021.94;5074713;28;20007;-67
2023/04/11 03:45:54;;;;;;;;;;;;;;;3.28;74.48;102007.41;5074754;28;19912;-67
2023/04/11 03:48:20;;;;;;;;;;;;;;;3.41;74.03;102008.41;5074686;28;20510;-67
2023/04/11 03:50:45;;;;;;;;;;;;;;;3.74;74.03;102007.44;5056909;28;19912;-67
2023/04/11 03:53:10;;;;;;;;;;;;;;;4.12;71.58;102012.28;5057868;28;19919;-67
2023/04/11 03:55:36;;;;;;;;;;;;;;;4.34;71.48;102008.28;5074640;28;19912;-70
2023/04/11 03:58:01;;;;;;;;;;;;;;;4.38;70.45;102008.09;5074499;28;19912;-67
2023/04/11 04:00:26;;;;;;;;;;;;;;;4.30;70.85;102006.75;5074646;28;19912;-67
2023/04/11 04:02:52;;;;;;;;;;;;;;;4.24;70.51;102001.00;5056216;28;19916;-69
2023/04/11 04:05:17;;;;;;;;;;;;;;;4.20;71.08;102000.34;5074574;28;19916;-66
2023/04/11 04:07:43;;;;;;;;;;;;;;;4.19;71.56;102000.44;5075427;28;19970;-69
2023/04/11 04:10:08;;;;;;;;;;;;;;;4.15;72.24;101996.28;5074189;28;19919;-67
2023/04/11 04:12:33;;;;;;;;;;;;;;;4.15;72.35;101997.13;5074309;28;19913;-69
2023/04/11 04:14:59;;;;;;;;;;;;;;;4.21;73.08;101996.75;5075098;28;19919;-68
2023/04/11 04:17:24;;;;;;;;;;;;;;;4.26;72.70;101992.06;5076269;28;19912;-70
2023/04/11 04:19:50;;;;;;;;;;;;;;;4.31;72.41;101991.78;5076915;28;20306;-70
2023/04/11 04:22:16;;;;;;;;;;;;;;;4.33;72.33;101989.88;5076716;28;19916;-68
2023/04/11 04:24:44;;;;;;;;;;;;;;;4.41;71.59;101995.56;5074258;28;20412;-69
2023/04/11 04:27:12;;;;;;;;;;;;;;;4.48;71.36;101991.63;5074058;28;19920;-68
2023/04/11 04:29:45;;;;;;;;;;;;;;;4.53;71.37;101991.31;5073741;28;19912;-67
2023/04/11 04:32:10;;;;;;;;;;;;;;;4.53;71.53;101989.53;5073790;28;19923;-67
2023/04/11 04:38:05;;;;;;;;;;;;;;;4.59;71.71;101981.25;5072839;28;19920;-67
2023/04/11 04:40:30;;;;;;;;;;;;;;;4.66;70.86;101977.31;5075441;28;19928;-70
2023/04/11 04:43:00;;;;;;;;;;;;;;;4.73;71.16;101977.78;5076031;28;19916;-71
2023/04/11 04:45:26;;;;;;;;;;;;;;;4.79;71.54;101976.53;5076222;28;20252;-67
2023/04/11 04:47:51;;;;;;;;;;;;;;;4.83;71.17;101975.41;5073723;28;19916;-66
2023/04/11 04:50:17;;;;;;;;;;;;;;;4.87;71.03;101974.25;5072547;28;20378;-67
2023/04/11 04:52:42;;;;;;;;;;;;;;;4.91;71.09;101971.31;5055628;28;20386;-66
2023/04/11 04:55:08;;;;;;;;;;;;;;;4.96;70.86;101963.13;5055930;28;20372;-67
2023/04/11 04:57:33;;;;;;;;;;;;;;;5.03;70.73;101963.59;5055541;28;20011;-65
2023/04/11 04:59:58;;;;;;;;;;;;;;;5.12;70.56;101974.41;5055485;28;19913;-66
2023/04/11 05:02:25;;;;;;;;;;;;;;;5.22;69.99;101972.88;5072935;28;20362;-67
2023/04/11 05:04:53;;;;;;;;;;;;;;;5.33;70.04;101961.63;5074054;28;19920;-65
2023/04/11 05:07:19;;;;;;;;;;;;;;;5.44;68.90;101966.19;5074045;28;20245;-68
2023/04/11 05:09:45;;;;;;;;;;;;;;;5.53;68.95;101968.25;5074492;28;19962;-69
2023/04/11 05:12:10;;;;;;;;;;;;;;;5.63;68.33;101969.34;5074428;28;19921;-66
2023/04/11 05:14:35;;;;;;;;;;;;;;;5.68;67.80;101959.31;5073468;28;19919;-66
2023/04/11 05:17:01;;;;;;;;;;;;;;;5.71;67.40;101961.75;5072884;28;19966;-65
2023/04/11 05:19:26;;;;;;;;;;;;;;;5.75;67.10;101957.94;5073124;28;20270;-69
2023/04/11 05:21:52;;;;;;;;;;;;;;;5.79;66.68;101964.75;5073008;28;19951;-69
2023/04/11 05:24:18;;;;;;;;;;;;;;;5.84;66.29;101967.91;5073047;28;19913;-70
2023/04/11 05:26:43;;;;;;;;;;;;;;;5.91;65.41;101968.38;5073022;28;19957;-68
2023/04/11 05:29:09;;;;;;;;;;;;;;;5.97;64.33;101961.81;5072686;28;19946;-69
2023/04/11 05:31:43;;;;;;;;;;;;;;;6.08;65.17;101956.69;5072859;28;20050;-66
2023/04/11 05:34:08;;;;;;;;;;;;;;;6.22;63.42;101953.91;5073134;28;20415;-68
2023/04/11 05:36:35;;;;;;;;;;;;;;;6.32;63.11;101949.69;5072538;28;19912;-70
2023/04/11 05:39:01;;;;;;;;;;;;;;;6.41;62.01;101954.34;5072606;28;19912;-67
2023/04/11 05:41:26;;;;;;;;;;;;;;;6.52;61.78;101949.16;5055061;28;20341;-67
2023/04/11 05:43:51;;;;;;;;;;;;;;;6.65;62.01;101949.16;5060925;28;20007;-68
2023/04/11 05:46:17;;;;;;;;;;;;;;;6.78;61.67;101949.09;5066886;28;19913;-68
2023/04/11 05:48:42;;;;;;;;;;;;;;;6.89;61.14;101954.47;5072460;28;19923;-66
2023/04/11 05:51:07;;;;;;;;;;;;;;;7.00;60.66;101956.38;5072112;28;20360;-68
2023/04/11 05:53:33;;;;;;;;;;;;;;;7.11;61.04;101940.53;5073038;28;19956;-68
2023/04/11 05:55:58;;;;;;;;;;;;;;;7.23;60.76;101941.44;5075161;28;19913;-67
2023/04/11 05:58:23;;;;;;;;;;;;;;;7.31;59.39;101937.28;5068769;28;19959;-67
2023/04/11 06:00:49;;;;;;;;;;;;;;;7.42;58.61;101931.19;5058102;28;19924;-68
2023/04/11 06:03:15;;;;;;;;;;;;;;;7.49;58.71;101929.75;5057946;28;19916;-68
2023/04/11 06:05:41;;;;;;;;;;;;;;;7.55;58.52;101934.63;5052580;28;19920;-68
2023/04/11 06:08:06;;;;;;;;;;;;;;;7.59;58.58;101935.25;5052724;28;19913;-66
2023/04/11 06:10:34;;;;;;;;;;;;;;;7.62;58.58;101925.25;5052471;28;19956;-68
2023/04/11 06:13:00;;;;;;;;;;;;;;;7.66;57.98;101926.72;5052907;28;20283;-65
2023/04/11 06:15:26;;;;;;;;;;;;;;;7.69;55.70;101931.78;5052614;28;19920;-65
2023/04/11 06:17:51;;;;;;;;;;;;;;;7.73;56.10;101932.38;5050737;28;19917;-67
2023/04/11 06:20:17;;;;;;;;;;;;;;;7.77;55.46;101921.44;5050531;28;19920;-66
2023/04/11 06:22:42;;;;;;;;;;;;;;;7.86;55.54;101921.72;5051866;28;19913;-68
2023/04/11 06:25:08;;;;;;;;;;;;;;;7.93;55.95;101923.78;5052156;28;20280;-67
2023/04/11 06:27:34;;;;;;;;;;;;;;;8.02;54.01;101922.22;5052183;28;19919;-68
2023/04/11 06:29:59;;;;;;;;;;;;;;;8.13;54.64;101918.75;5051617;28;20008;-68
2023/04/11 06:32:33;;;;;;;;;;;;;;;8.24;52.93;101916.94;5051486;28;20011;-68
2023/04/11 06:35:06;;;;;;;;;;;;;;;8.37;53.93;101915.03;5050689;28;20027;-69
2023/04/11 06:37:32;;;;;;;;;;;;;;;8.43;48.49;101916.41;5052025;28;19966;-70
2023/04/11 06:40:00;;;;;;;;;;;;;;;8.52;50.08;101920.97;5051938;28;19927;-70
2023/04/11 06:42:25;;;;;;;;;;;;;;;8.59;47.84;101916.00;5052345;28;20207;-70
2023/04/11 06:44:51;;;;;;;;;;;;;;;8.63;49.46;101915.66;5050826;28;19913;-69
2023/04/11 06:47:16;;;;;;;;;;;;;;;8.69;50.96;101917.00;5051920;28;20287;-69
2023/04/11 06:49:41;;;;;;;;;;;;;;;8.74;50.55;101909.50;5051721;28;19913;-66
2023/04/11 06:52:07;;;;;;;;;;;;;;;8.77;49.24;101914.56;5051934;28;19920;-67
2023/04/11 06:54:32;;;;;;;;;;;;;;;8.79;50.05;101909.97;5048615;28;20383;-68
2023/04/11 06:56:57;;;;;;;;;;;;;;;8.83;50.70;101908.75;5058296;28;19917;-69
2023/04/11 06:59:23;;;;;;;;;;;;;;;8.85;50.30;101903.31;5066437;28;20333;-68
2023/04/11 07:01:48;;;;;;;;;;;;;;;8.86;46.27;101907.66;5043224;28;20016;-68
2023/04/11 07:04:17;;;;;;;;;;;;;;;8.88;46.54;101911.03;5055118;28;20315;-67
2023/04/11 07:06:42;;;;;;;;;;;;;;;8.92;47.72;101897.38;5054592;28;20330;-70
2023/04/11 07:09:13;;;;;;;;;;;;;;;8.97;45.22;101897.88;5054823;28;19948;-67
2023/04/11 07:11:39;;;;;;;;;;;;;;;9.05;47.52;101896.41;5055325;28;20431;-65
2023/04/11 07:14:05;;;;;;;;;;;;;;;9.11;47.49;101887.91;5055711;28;19920;-68
2023/04/11 07:16:30;;;;;;;;;;;;;;;9.15;46.66;101892.84;5055204;28;20443;-70
2023/04/11 07:18:56;;;;;;;;;;;;;;;9.21;47.15;101894.16;5055265;28;20352;-70
2023/04/11 07:21:21;;;;;;;;;;;;;;;9.26;44.52;101881.34;5054713;28;20356;-69
2023/04/11 07:23:47;;;;;;;;;;;;;;;9.33;44.25;101887.84;5055062;28;20302;-68
2023/04/11 07:26:13;;;;;;;;;;;;;;;9.39;44.57;101890.00;5037186;28;19920;-69
2023/04/11 07:28:39;;;;;;;;;;;;;;;9.41;45.02;101882.72;5063830;28;20352;-68
2023/04/11 07:31:06;;;;;;;;;;;;;;;9.45;44.63;101878.84;5075061;28;20395;-69
2023/04/11 07:33:32;;;;;;;;;;;;;;;9.55;44.84;101879.78;5057352;28;19956;-69
2023/04/11 07:35:58;;;;;;;;;;;;;;;9.60;44.89;101874.91;5075385;28;20378;-69
2023/04/11 07:38:28;;;;;;;;;;;;;;;9.63;44.54;101871.97;5075158;28;19913;-71
2023/04/11 07:40:53;;;;;;;;;;;;;;;9.70;43.96;101864.31;5075146;28;20370;-66
2023/04/11 07:43:25;;;;;;;;;;;;;;;9.76;42.69;101870.94;5075287;28;19912;-72
2023/04/11 07:45:51;;;;;;;;;;;;;;;9.85;42.73;101871.00;5074974;28;19923;-70
2023/04/11 07:48:17;;;;;;;;;;;;;;;9.91;43.61;101866.97;5074700;28;19912;-69
2023/04/11 07:50:42;;;;;;;;;;;;;;;9.95;42.04;101865.75;5074928;28;20008;-68
2023/04/11 07:53:09;;;;;;;;;;;;;;;10.04;41.84;101859.63;5074874;28;19920;-67
2023/04/11 07:55:35;;;;;;;;;;;;;;;10.11;41.20;101857.25;5075241;28;19917;-69
2023/04/11 07:58:00;;;;;;;;;;;;;;;10.18;42.04;101856.63;5075363;28;19962;-69
2023/04/11 08:00:27;;;;;;;;;;;;;;;10.25;40.99;101856.97;5074794;28;20030;-68
2023/04/11 08:02:57;;;;;;;;;;;;;;;10.34;42.40;101849.97;5074131;28;19939;-66
2023/04/11 08:05:22;;;;;;;;;;;;;;;10.40;41.79;101846.75;5074552;28;19971;-66
2023/04/11 08:07:48;;;;;;;;;;;;;;;10.45;41.31;101847.22;5073695;28;19917;-67
2023/04/11 08:10:13;;;;;;;;;;;;;;;10.51;40.46;101836.03;5074494;28;19955;-69
2023/04/11 08:12:38;;;;;;;;;;;;;;;10.60;40.51;101843.19;5074223;28;19917;-69
2023/04/11 08:15:04;;;;;;;;;;;;;;;10.68;40.35;101847.81;5074561;28;20322;-69
2023/04/11 08:17:33;;;;;;;;;;;;;;;10.73;40.69;101841.13;5056570;28;19912;-67
2023/04/11 08:19:58;;;;;;;;;;;;;;;10.75;39.18;101841.84;5074428;28;20368;-67
2023/04/11 08:22:23;;;;;;;;;;;;;;;10.78;40.37;101841.56;5073998;28;19920;-68
2023/04/11 08:24:49;;;;;;;;;;;;;;;10.84;39.10;101848.16;5073927;28;19962;-66
2023/04/11 08:27:14;;;;;;;;;;;;;;;10.91;40.24;101837.78;5073788;28;20364;-66
2023/04/11 08:29:39;;;;;;;;;;;;;;;10.96;38.74;101846.19;5074029;28;19917;-65
2023/04/11 08:32:05;;;;;;;;;;;;;;;11.05;40.40;101829.38;5073953;28;20284;-69
2023/04/11 08:34:31;;;;;;;;;;;;;;;11.09;38.34;101830.78;5073917;28;19917;-65
2023/04/11 08:36:56;;;;;;;;;;;;;;;11.13;37.64;101829.53;5073808;28;19919;-66
2023/04/11 08:39:22;;;;;;;;;;;;;;;11.17;38.78;101825.59;5073597;28;19919;-66
2023/04/11 08:41:47;;;;;;;;;;;;;;;11.24;36.45;101826.69;5073537;28;19912;-67
2023/04/11 08:44:12;;;;;;;;;;;;;;;11.30;36.65;101817.31;5073506;28;19918;-67
2023/04/11 08:46:41;;;;;;;;;;;;;;;11.33;37.47;101822.38;5073075;28;19913;-69
2023/04/11 08:49:06;;;;;;;;;;;;;;;11.41;36.92;101825.16;5073532;28;19912;-67
2023/04/11 08:51:32;;;;;;;;;;;;;;;11.48;35.71;101815.59;5075571;28;20319;-65
2023/04/11 08:54:00;;;;;;;;;;;;;;;11.58;36.65;101815.59;5075882;28;19912;-65
2023/04/11 08:56:26;;;;;;;;;;;;;;;11.59;35.38;101817.28;5055718;28;19919;-68
2023/04/11 08:58:51;;;;;;;;;;;;;;;11.65;35.80;101814.03;5073369;28;19912;-66
2023/04/11 09:01:23;;;;;;;;;;;;;;;11.72;36.90;101812.47;5076804;28;19912;-69
2023/04/11 09:03:50;;;;;;;;;;;;;;;11.76;35.02;101814.69;5075379;28;20287;-73
2023/04/11 09:06:16;;;;;;;;;;;;;;;11.81;35.25;101810.78;5074721;28;20374;-70
2023/04/11 09:08:42;;;;;;;;;;;;;;;11.84;34.91;101814.00;5073609;28;19981;-68
2023/04/11 09:11:10;;;;;;;;;;;;;;;11.92;35.45;101813.28;5073266;28;20367;-76
2023/04/11 09:13:35;;;;;;;;;;;;;;;11.96;35.11;101804.84;5073109;28;19959;-73
2023/04/11 09:16:13;;;;;;;;;;;;;;;11.98;35.28;101796.69;5073228;28;19962;-71
2023/04/11 09:18:40;;;;;;;;;;;;;;;12.03;36.03;101802.41;5073104;28;19923;-69
2023/04/11 09:21:06;;;;;;;;;;;;;;;12.11;36.62;101799.84;5055894;28;19912;-71
2023/04/11 09:23:32;;;;;;;;;;;;;;;12.22;35.65;101793.50;5073685;28;19912;-70
2023/04/11 09:25:57;;;;;;;;;;;;;;;12.34;35.69;101792.28;5072929;28;19999;-68
2023/04/11 09:28:23;;;;;;;;;;;;;;;12.45;35.39;101797.44;5073005;28;20300;-69
2023/04/11 09:30:50;;;;;;;;;;;;;;;12.50;34.84;101795.16;5072983;28;20395;-69
2023/04/11 09:33:22;;;;;;;;;;;;;;;12.55;35.61;101790.22;5072823;28;19919;-70
2023/04/11 09:35:52;;;;;;;;;;;;;;;12.60;35.60;101790.59;5072580;28;19927;-72
2023/04/11 09:38:26;;;;;;;;;;;;;;;12.68;35.87;101790.66;5074413;28;19913;-72
2023/04/11 09:40:51;;;;;;;;;;;;;;;12.81;36.13;101778.78;5072786;28;19924;-71
2023/04/11 09:43:16;;;;;;;;;;;;;;;12.89;35.43;101776.19;5072849;28;20275;-71
2023/04/11 09:45:43;;;;;;;;;;;;;;;12.89;35.67;101777.00;5072824;28;19935;-72
2023/04/11 09:48:09;;;;;;;;;;;;;;;12.89;35.63;101779.69;5058634;28;19913;-71
2023/04/11 09:50:35;;;;;;;;;;;;;;;12.86;36.05;101776.47;5056722;28;19955;-69
2023/04/11 09:53:01;;;;;;;;;;;;;;;12.88;36.16;101766.47;5073841;28;20380;-70
2023/04/11 09:55:27;;;;;;;;;;;;;;;12.95;36.06;101767.53;5073059;28;19912;-72
2023/04/11 09:57:53;;;;;;;;;;;;;;;13.01;35.81;101765.09;5072575;28;19963;-69
2023/04/11 10:00:29;;;;;;;;;;;;;;;13.10;35.85;101760.66;5072638;28;19913;-72
2023/04/11 10:02:55;;;;;;;;;;;;;;;13.15;35.64;101755.69;5072446;28;19924;-71
2023/04/11 10:05:27;;;;;;;;;;;;;;;13.11;35.88;101748.97;5072531;28;20322;-72
2023/04/11 10:07:55;;;;;;;;;;;;;;;13.14;36.16;101743.31;5075001;28;19973;-71
2023/04/11 10:10:21;;;;;;;;;;;;;;;13.19;36.26;101746.38;5073398;28;19924;-69
2023/04/11 10:12:47;;;;;;;;;;;;;;;13.29;36.84;101735.56;5054387;28;19947;-70
2023/04/11 10:15:12;;;;;;;;;;;;;;;13.33;36.17;101735.13;5072480;28;19955;-69
2023/04/11 10:17:39;;;;;;;;;;;;;;;13.32;35.93;101738.81;5072522;28;19920;-68
2023/04/11 10:20:24;;;;;;;;;;;;;;;13.42;36.63;101735.19;5054238;28;19921;-67
2023/04/11 10:22:50;;;;;;;;;;;;;;;13.55;36.50;101724.88;5072632;28;20236;-73
2023/04/11 10:25:16;;;;;;;;;;;;;;;13.53;36.18;101721.50;5072491;28;20015;-70
2023/04/11 10:27:46;;;;;;;;;;;;;;;13.43;36.05;101720.81;5072382;28;20390;-72
2023/04/11 10:30:11;;;;;;;;;;;;;;;13.49;36.63;101729.03;5074202;28;19916;-75
2023/04/11 10:32:36;;;;;;;;;;;;;;;13.55;36.26;101724.88;5058829;28;19913;-71
2023/04/11 10:35:09;;;;;;;;;;;;;;;13.51;35.77;101726.19;5084002;28;20336;-70
2023/04/11 10:37:35;;;;;;;;;;;;;;;13.59;36.56;101715.56;5077496;28;19912;-69
2023/04/11 10:40:01;;;;;;;;;;;;;;;13.65;36.45;101714.91;5077621;28;19916;-69
2023/04/11 10:42:32;;;;;;;;;;;;;;;13.76;36.22;101711.94;5076097;28;20429;-69
2023/04/11 10:45:16;;;;;;;;;;;;;;;13.82;35.21;101719.31;5057977;28;19912;-71
2023/04/11 10:47:57;;;;;;;;;;;;;;;13.83;35.33;101717.50;5076190;28;19912;-71
2023/04/11 10:50:25;;;;;;;;;;;;;;;13.81;35.36;101708.78;5058347;28;20283;-72
2023/04/11 10:52:54;;;;;;;;;;;;;;;13.82;35.75;101705.94;5075863;28;19924;-68
2023/04/11 10:55:20;;;;;;;;;;;;;;;13.88;35.38;101705.31;5077101;28;20003;-68
2023/04/11 10:58:04;;;;;;;;;;;;;;;13.99;35.86;101706.03;5075898;28;20001;-67
2023/04/11 11:00:50;;;;;;;;;;;;;;;14.10;35.64;101700.34;5075782;28;20058;-68
2023/04/11 11:03:18;;;;;;;;;;;;;;;14.10;34.64;101706.53;5075266;28;19916;-67
2023/04/11 11:05:44;;;;;;;;;;;;;;;14.08;34.50;101697.84;5073164;28;19916;-68
2023/04/11 11:08:10;;;;;;;;;;;;;;;14.17;34.87;101699.56;5073577;28;19935;-69
2023/04/11 11:10:36;;;;;;;;;;;;;;;14.30;34.16;101701.75;5075191;28;19990;-68
2023/04/11 11:13:02;;;;;;;;;;;;;;;14.38;33.35;101693.72;5075242;28;19920;-67
2023/04/11 11:15:28;;;;;;;;;;;;;;;14.40;33.88;101696.25;5075836;28;19948;-68
2023/04/11 11:17:54;;;;;;;;;;;;;;;14.48;33.98;101686.44;5075576;28;19967;-69
2023/04/11 11:20:19;;;;;;;;;;;;;;;14.47;33.89;101695.47;5074980;28;19920;-71
2023/04/11 11:22:58;;;;;;;;;;;;;;;14.55;34.58;101690.13;5057154;28;19955;-70
2023/04/11 11:25:24;;;;;;;;;;;;;;;14.65;34.24;101683.75;5057567;28;20030;-69
2023/04/11 11:27:57;;;;;;;;;;;;;;;14.73;33.33;101684.56;5074135;28;19920;-69
2023/04/11 11:30:22;;;;;;;;;;;;;;;14.76;34.61;101686.94;5073637;28;19998;-70
2023/04/11 11:32:47;;;;;;;;;;;;;;;14.81;33.62;101689.13;5074114;28;20371;-69
2023/04/11 11:35:12;;;;;;;;;;;;;;;14.77;33.38;101687.78;5073738;28;19912;-69
2023/04/11 11:37:38;;;;;;;;;;;;;;;14.60;33.45;101688.78;5073895;28;19919;-70
2023/04/11 11:40:11;;;;;;;;;;;;;;;14.53;33.28;101692.13;5074119;28;19919;-68
2023/04/11 11:42:38;;;;;;;;;;;;;;;14.52;33.83;101682.41;5073198;28;20345;-70
2023/04/11 11:45:17;;;;;;;;;;;;;;;14.54;33.88;101677.72;5074700;28;19913;-70
2023/04/11 11:47:43;;;;;;;;;;;;;;;14.53;33.21;101675.19;5074809;28;19912;-70
2023/04/11 11:50:08;;;;;;;;;;;;;;;14.48;31.80;101662.31;5074884;28;20356;-71
2023/04/11 11:52:42;;;;;;;;;;;;;;;14.47;32.97;101667.84;5057986;28;19959;-69
2023/04/11 11:55:27;;;;;;;;;;;;;;;14.51;33.33;101664.66;5080636;28;19916;-69
2023/04/11 11:57:52;;;;;;;;;;;;;;;14.58;32.72;101664.81;5078516;28;19920;-71
2023/04/11 12:00:25;;;;;;;;;;;;;;;14.61;30.73;101664.47;5075426;28;19912;-71
2023/04/11 12:02:51;;;;;;;;;;;;;;;14.61;31.30;101663.63;5074426;28;19968;-70
2023/04/11 12:05:17;;;;;;;;;;;;;;;14.69;32.08;101666.31;5057034;28;20303;-71
2023/04/11 12:07:42;;;;;;;;;;;;;;;14.72;31.24;101660.63;5075215;28;19955;-72
2023/04/11 12:10:10;;;;;;;;;;;;;;;14.78;31.22;101660.81;5074798;28;20372;-70
2023/04/11 12:12:39;;;;;;;;;;;;;;;14.77;31.78;101661.81;5074494;28;19912;-69
2023/04/11 12:15:11;;;;;;;;;;;;;;;14.72;31.72;101666.81;5075025;28;19924;-70
2023/04/11 12:17:37;;;;;;;;;;;;;;;14.68;31.89;101657.44;5074243;28;20007;-71
2023/04/11 12:20:09;;;;;;;;;;;;;;;14.61;32.67;101652.91;5073967;28;20340;-70
2023/04/11 12:22:38;;;;;;;;;;;;;;;14.68;33.16;101659.28;5074216;28;20387;-69
2023/04/11 12:25:07;;;;;;;;;;;;;;;14.60;33.11;101659.28;5073957;28;19913;-70
2023/04/11 12:27:33;;;;;;;;;;;;;;;14.64;32.99;101644.53;5074312;28;20023;-71
2023/04/11 12:30:13;;;;;;;;;;;;;;;14.68;33.18;101638.66;5074309;28;19913;-71
2023/04/11 12:32:39;;;;;;;;;;;;;;;14.76;33.61;101648.56;5073743;28;20260;-69
2023/04/11 12:35:05;;;;;;;;;;;;;;;14.80;33.32;101640.03;5073865;28;19916;-69
2023/04/11 12:37:30;;;;;;;;;;;;;;;14.83;32.41;101641.53;5073423;28;20328;-70
2023/04/11 12:39:56;;;;;;;;;;;;;;;14.89;33.49;101646.19;5073410;28;19913;-71
2023/04/11 12:42:21;;;;;;;;;;;;;;;14.95;33.60;101644.69;5055866;28;19912;-69
2023/04/11 12:44:46;;;;;;;;;;;;;;;14.98;32.81;101647.03;5073858;28;20011;-68